Time;durP1;ratioP1;P1;durP2;ratioP2;P2;SDS_P1;SDS_P2;PMS_P1;PMS_P2;Temp;Humidity;BMP_temperature;BMP_pressure;BME280_temperature;BME280_humidity;BME280_pressure;Samples;Min_cycle;Max_cycle;Signal;HPM_P1;HPM_P2
2021/01/05 00:02:17;;;;;;;44.22;19.17;;;1.80;77.40;;;-0.53;80.63;95263.56;4971455;28;20125;-73
2021/01/05 00:04:44;;;;;;;40.78;17.98;;;1.80;77.70;;;-0.51;80.45;95266.00;4987717;28;20404;-73
2021/01/05 00:07:10;;;;;;;41.65;18.05;;;1.90;77.90;;;-0.52;80.65;95272.94;4971508;28;20041;-73
2021/01/05 00:09:36;;;;;;;39.95;18.20;;;1.90;77.90;;;-0.56;80.85;95253.53;5000600;28;20058;-73
2021/01/05 00:12:04;;;;;;;42.92;18.45;;;1.90;77.80;;;-0.52;80.99;95274.72;4984373;28;20054;-73
2021/01/05 00:14:30;;;;;;;38.33;16.75;;;1.90;78.10;;;-0.57;80.64;95257.06;4987760;28;20035;-73
2021/01/05 00:16:56;;;;;;;41.20;17.10;;;1.90;78.20;;;-0.51;80.88;95266.00;4986773;28;20046;-73
2021/01/05 00:19:23;;;;;;;38.08;18.02;;;1.90;78.30;;;-0.51;81.07;95282.31;5004394;28;20038;-74
2021/01/05 00:21:49;;;;;;;40.55;17.85;;;1.80;78.40;;;-0.51;80.77;95266.00;4987924;28;20038;-73
2021/01/05 00:24:15;;;;;;;41.53;17.50;;;1.90;78.40;;;-0.51;80.69;95264.22;4989781;28;20571;-73
2021/01/05 00:26:41;;;;;;;43.50;18.40;;;1.90;78.40;;;-0.51;80.98;95269.41;5005280;28;20030;-73
2021/01/05 00:29:07;;;;;;;39.65;17.75;;;1.90;78.60;;;-0.50;80.89;95272.81;5007523;28;20120;-73
2021/01/05 00:31:32;;;;;;;38.67;16.10;;;1.90;78.40;;;-0.52;81.01;95269.53;4989950;28;20030;-72
2021/01/05 00:33:58;;;;;;;40.42;18.23;;;1.90;78.40;;;-0.53;81.23;95271.31;4990590;28;20048;-72
2021/01/05 00:36:24;;;;;;;45.47;17.63;;;1.90;78.50;;;-0.50;81.01;95273.59;4974069;28;20145;-72
2021/01/05 00:38:50;;;;;;;42.30;17.92;;;1.90;78.40;;;-0.50;81.27;95283.94;5006705;28;20038;-72
2021/01/05 00:41:15;;;;;;;40.17;17.10;;;1.90;78.60;;;-0.51;81.15;95281.50;4986459;28;20358;-73
2021/01/05 00:43:42;;;;;;;42.95;17.95;;;1.90;78.50;;;-0.49;80.97;95285.56;4986886;28;20061;-72
2021/01/05 00:46:11;;;;;;;43.05;18.33;;;1.90;78.50;;;-0.48;81.24;95283.81;4995264;28;20026;-74
2021/01/05 00:48:36;;;;;;;38.53;17.77;;;2.00;78.50;;;-0.54;81.06;95281.78;4990250;28;20548;-74
2021/01/05 00:51:03;;;;;;;42.78;17.63;;;1.90;78.40;;;-0.49;81.06;95282.16;4990118;28;20074;-72
2021/01/05 00:53:28;;;;;;;37.13;17.00;;;1.90;78.50;;;-0.54;81.17;95281.78;4989605;28;20409;-72
2021/01/05 00:55:54;;;;;;;38.85;16.95;;;1.90;78.30;;;-0.50;81.17;95285.72;4986584;28;20061;-72
2021/01/05 00:58:23;;;;;;;38.30;17.35;;;1.80;78.70;;;-0.57;81.18;95287.25;4987762;28;20579;-72
2021/01/05 01:00:50;;;;;;;33.42;15.85;;;1.80;78.50;;;-0.50;81.08;95289.09;4975059;28;20169;-73
2021/01/05 01:03:20;;;;;;;36.17;15.65;;;1.80;78.30;;;-0.51;81.18;95286.66;5006436;28;20022;-72
2021/01/05 01:05:45;;;;;;;35.60;15.25;;;1.90;77.90;;;-0.56;81.02;95278.53;4990306;28;20434;-71
2021/01/05 01:08:11;;;;;;;32.35;15.50;;;1.80;78.00;;;-0.51;81.23;95281.50;5005991;28;20034;-72
2021/01/05 01:10:38;;;;;;;31.75;15.23;;;1.80;77.90;;;-0.58;81.22;95280.44;4986728;28;20042;-72
2021/01/05 01:13:07;;;;;;;34.60;15.40;;;1.80;78.20;;;-0.54;81.02;95282.59;4941347;28;20375;-72
2021/01/05 01:15:33;;;;;;;35.05;14.98;;;1.80;77.40;;;-0.58;80.51;95276.09;4985944;28;20529;-72
2021/01/05 01:17:58;;;;;;;34.97;15.90;;;1.80;77.20;;;-0.59;80.69;95279.63;4980189;28;20121;-72
2021/01/05 01:20:24;;;;;;;31.88;14.50;;;1.80;77.20;;;-0.60;80.77;95274.63;4968435;28;20062;-72
2021/01/05 01:22:50;;;;;;;34.22;14.98;;;1.80;77.30;;;-0.54;80.55;95292.13;4956996;28;20501;-72
2021/01/05 01:25:16;;;;;;;31.63;14.88;;;1.80;77.20;;;-0.53;80.33;95291.16;4990026;28;20089;-73
2021/01/05 01:27:42;;;;;;;30.38;14.25;;;1.80;77.10;;;-0.59;80.38;95276.25;4987471;28;20041;-73
2021/01/05 01:30:09;;;;;;;29.30;14.27;;;1.80;76.80;;;-0.60;80.46;95270.25;4973222;28;20038;-72
2021/01/05 01:32:34;;;;;;;30.80;14.65;;;1.80;77.10;;;-0.53;80.40;95283.41;4957851;28;20121;-73
2021/01/05 01:35:00;;;;;;;33.83;15.18;;;1.80;76.80;;;-0.54;80.33;95286.94;4990126;28;20091;-73
2021/01/05 01:37:26;;;;;;;33.08;14.27;;;1.80;76.80;;;-0.63;80.11;95279.09;4957158;28;20046;-72
2021/01/05 01:39:52;;;;;;;33.25;14.75;;;1.80;76.70;;;-0.58;80.31;95290.78;4970727;28;20115;-72
2021/01/05 01:42:19;;;;;;;32.17;15.40;;;1.70;76.40;;;-0.64;80.25;95280.06;4972093;28;20114;-73
2021/01/05 01:44:46;;;;;;;32.17;14.07;;;1.70;76.70;;;-0.67;79.93;95277.75;4938396;28;20046;-72
2021/01/05 01:47:35;;;;;;;32.13;14.70;;;1.70;76.00;;;-0.65;80.00;95283.59;4970406;28;20061;-73
2021/01/05 01:50:11;;;;;;;32.47;13.90;;;1.60;76.50;;;-0.67;79.83;95288.09;4977560;28;20143;-73
2021/01/05 01:53:19;;;;;;;32.55;13.50;;;1.60;76.60;;;-0.67;80.18;95292.44;4959202;28;20061;-72
2021/01/05 01:56:26;;;;;;;29.50;14.13;;;1.60;76.60;;;-0.68;80.11;95286.47;4972821;28;20487;-72
2021/01/05 01:59:24;;;;;;;30.13;13.98;;;1.70;76.60;;;-0.69;80.09;95284.81;4978185;28;20092;-73
2021/01/05 02:01:59;;;;;;;32.95;14.30;;;1.70;76.50;;;-0.70;80.05;95288.34;4976947;28;20031;-73
2021/01/05 02:04:39;;;;;;;33.70;14.48;;;1.60;76.50;;;-0.72;80.11;95292.03;4957668;28;20042;-73
2021/01/05 02:07:35;;;;;;;34.20;15.30;;;1.60;76.40;;;-0.80;80.08;95282.41;4974176;28;20078;-73
2021/01/05 02:10:20;;;;;;;33.47;14.88;;;1.50;76.50;;;-0.77;79.86;95284.69;4985349;28;20034;-72
2021/01/05 02:13:20;;;;;;;36.42;15.35;;;1.50;76.60;;;-0.77;79.92;95276.97;4971371;28;20038;-73
2021/01/05 02:16:07;;;;;;;39.85;15.45;;;1.50;76.70;;;-0.80;79.91;95282.41;4987307;28;20461;-73
2021/01/05 02:19:03;;;;;;;35.92;15.15;;;1.40;76.70;;;-0.82;79.48;95283.50;4989505;28;20038;-72
2021/01/05 02:21:59;;;;;;;34.03;15.30;;;1.40;76.50;;;-0.86;79.82;95277.81;4980057;28;20038;-72
2021/01/05 02:24:45;;;;;;;33.08;14.15;;;1.30;76.90;;;-0.87;79.95;95276.19;4971145;28;20237;-73
2021/01/05 02:27:11;;;;;;;35.78;15.05;;;1.30;77.00;;;-0.88;79.80;95279.72;4972884;28;20037;-73
2021/01/05 02:29:49;;;;;;;34.33;15.70;;;1.30;77.00;;;-0.88;79.85;95287.47;4956375;28;20129;-75
2021/01/05 02:32:46;;;;;;;35.83;16.10;;;1.30;76.80;;;-0.93;80.07;95280.09;4955801;28;20034;-73
2021/01/05 02:35:29;;;;;;;31.15;14.05;;;1.20;76.90;;;-0.94;80.09;95275.09;4972858;28;20027;-73
2021/01/05 02:38:09;;;;;;;36.20;14.40;;;1.20;77.00;;;-0.93;79.74;95271.56;4987290;28;20034;-72
2021/01/05 02:41:14;;;;;;;36.10;16.20;;;1.30;77.00;;;-0.95;79.94;95270.88;4988418;28;20044;-72
2021/01/05 02:44:21;;;;;;;38.97;15.85;;;1.20;76.80;;;-0.95;79.95;95268.28;4988461;28;20046;-73
2021/01/05 02:47:22;;;;;;;32.55;14.73;;;1.30;76.90;;;-0.96;79.85;95266.66;4982938;28;20046;-72
2021/01/05 02:50:12;;;;;;;33.35;15.30;;;1.30;76.80;;;-0.98;79.65;95264.22;4976187;28;20049;-73
2021/01/05 02:52:56;;;;;;;33.00;14.63;;;1.30;76.80;;;-0.98;80.06;95260.84;4938359;28;20595;-74
2021/01/05 02:55:33;;;;;;;34.67;15.43;;;1.30;76.70;;;-0.95;80.05;95257.97;5007452;28;20034;-74
2021/01/05 02:58:06;;;;;;;36.70;15.27;;;1.30;76.80;;;-0.93;79.66;95261.22;5007699;28;20046;-74
2021/01/05 03:01:00;;;;;;;34.92;15.02;;;1.40;76.70;;;-0.96;79.78;95253.75;5008056;28;20042;-75
2021/01/05 03:03:39;;;;;;;33.45;15.68;;;1.40;76.50;;;-0.93;80.10;95250.91;4963303;28;20053;-74
2021/01/05 03:06:36;;;;;;;36.40;16.02;;;1.40;76.60;;;-0.93;80.09;95250.91;4982348;28;20077;-74
2021/01/05 03:09:47;;;;;;;34.53;15.43;;;1.40;76.60;;;-0.93;80.23;95246.56;4980208;28;20581;-75
2021/01/05 03:12:24;;;;;;;;;;;1.40;76.50;;;-0.89;80.39;95247.13;4989877;28;20046;-74
2021/01/05 03:15:39;;;;;;;33.90;14.50;;;1.50;76.60;;;-0.90;80.02;95255.81;4988417;28;20012;-74
2021/01/05 03:18:17;;;;;;;32.17;15.48;;;1.40;76.50;;;-0.90;79.83;95250.66;4957665;28;20102;-74
2021/01/05 03:21:07;;;;;;;33.65;14.50;;;1.50;76.60;;;-0.90;79.88;95249.84;4956409;28;20121;-75
2021/01/05 03:23:33;;;;;;;33.92;15.25;;;1.50;76.40;;;-0.98;79.53;95242.75;4974114;28;20126;-74
2021/01/05 03:26:02;;;;;;;33.22;15.57;;;1.50;76.50;;;-0.92;79.95;95248.19;4968458;28;20529;-74
2021/01/05 03:28:28;;;;;;;38.70;16.45;;;1.50;76.60;;;-0.89;79.74;95252.28;4950105;28;20518;-74
2021/01/05 03:31:02;;;;;;;33.70;15.52;;;1.50;76.80;;;-0.91;80.11;95251.56;4972380;28;20418;-74
2021/01/05 03:33:27;;;;;;;36.35;16.48;;;1.50;76.60;;;-0.90;79.82;95255.00;4987257;28;20039;-71
2021/01/05 03:35:53;;;;;;;34.50;15.50;;;1.50;76.60;;;-0.89;79.56;95254.84;4968686;28;20050;-73
2021/01/05 03:38:19;;;;;;;36.28;15.18;;;1.40;76.60;;;-0.88;79.57;95259.06;4950516;28;20121;-72
2021/01/05 03:40:44;;;;;;;37.08;16.13;;;1.50;76.50;;;-0.90;79.74;95260.97;4971624;28;20117;-73
2021/01/05 03:43:10;;;;;;;33.97;15.85;;;1.40;76.40;;;-0.92;79.78;95262.84;4955237;28;20027;-73
2021/01/05 03:45:36;;;;;;;34.67;14.90;;;1.40;76.30;;;-0.96;79.62;95253.75;4954791;28;20049;-72
2021/01/05 03:48:02;;;;;;;33.65;15.68;;;1.50;76.30;;;-0.95;79.50;95248.47;4987615;28;20080;-72
2021/01/05 03:50:27;;;;;;;33.17;15.52;;;1.50;76.20;;;-0.87;79.85;95259.88;4971394;28;20058;-72
2021/01/05 03:52:53;;;;;;;33.53;15.20;;;1.40;76.40;;;-0.94;79.73;95246.69;4952036;28;20138;-72
2021/01/05 03:55:19;;;;;;;36.83;16.63;;;1.40;76.40;;;-0.96;79.93;95246.03;4984912;28;20038;-72
2021/01/05 03:57:45;;;;;;;35.45;15.93;;;1.40;76.60;;;-0.96;79.85;95246.03;4971309;28;20110;-72
2021/01/05 04:00:17;;;;;;;33.58;15.68;;;1.40;76.60;;;-0.92;79.90;95250.75;4939256;28;20518;-72
2021/01/05 04:02:44;;;;;;;34.58;15.63;;;1.40;76.90;;;-0.89;79.74;95251.47;4987634;28;20132;-72
2021/01/05 04:05:13;;;;;;;34.90;14.98;;;1.50;77.00;;;-0.88;80.11;95256.47;4988264;28;20513;-72
2021/01/05 04:07:38;;;;;;;34.22;15.55;;;1.60;76.90;;;-0.87;79.87;95247.78;4967315;28;20046;-72
2021/01/05 04:10:05;;;;;;;29.17;14.05;;;1.50;76.70;;;-0.92;79.58;95242.19;4952176;28;20039;-73
2021/01/05 04:12:32;;;;;;;32.28;13.48;;;1.60;76.50;;;-0.84;79.72;95255.25;4970744;28;20409;-73
2021/01/05 04:14:57;;;;;;;31.73;14.85;;;1.60;76.30;;;-0.93;79.60;95240.56;4951986;28;20410;-72
2021/01/05 04:17:23;;;;;;;25.80;12.68;;;1.50;76.30;;;-0.84;79.75;95255.25;4967172;28;20062;-72
2021/01/05 04:19:49;;;;;;;31.48;13.60;;;1.50;76.40;;;-0.88;79.80;95248.75;4986945;28;20082;-72
2021/01/05 04:22:15;;;;;;;29.83;14.23;;;1.60;76.70;;;-0.81;79.73;95254.16;5003457;28;20034;-72
2021/01/05 04:24:40;;;;;;;27.15;12.35;;;1.60;76.50;;;-0.88;80.06;95253.91;4955223;28;20514;-72
2021/01/05 04:27:06;;;;;;;25.65;11.32;;;1.50;76.80;;;-0.89;79.66;95252.28;4951549;28;20532;-72
2021/01/05 04:29:32;;;;;;;27.73;12.02;;;1.40;76.50;;;-0.93;79.67;95245.75;4940060;28;20422;-72
2021/01/05 04:31:57;;;;;;;25.15;11.55;;;1.40;76.80;;;-0.93;79.97;95250.91;4955086;28;20529;-72
2021/01/05 04:34:23;;;;;;;25.05;11.32;;;1.40;76.70;;;-0.93;80.08;95250.91;4970746;28;20093;-71
2021/01/05 04:36:49;;;;;;;24.08;11.45;;;1.40;77.00;;;-0.90;79.96;95255.00;5003042;28;20065;-72
2021/01/05 04:39:15;;;;;;;23.85;11.50;;;1.30;77.30;;;-0.97;80.04;95249.56;4986915;28;20077;-73
2021/01/05 04:41:52;;;;;;;24.02;11.85;;;1.40;77.30;;;-0.90;80.04;95255.00;4986297;28;20065;-72
2021/01/05 04:44:17;;;;;;;26.65;11.73;;;1.40;77.20;;;-0.97;79.81;95249.56;4953051;28;20038;-72
2021/01/05 04:47:15;;;;;;;24.33;10.68;;;1.40;77.00;;;-0.91;80.35;95264.47;4983042;28;20117;-73
2021/01/05 04:50:05;;;;;;;36.50;17.48;;;1.40;76.80;;;-0.93;80.55;95262.03;4968292;28;20038;-72
2021/01/05 04:52:50;;;;;;;40.30;18.25;;;1.40;77.20;;;-0.93;80.24;95266.38;4986480;28;20486;-73
2021/01/05 04:55:42;;;;;;;30.20;12.15;;;1.30;77.20;;;-0.98;80.05;95260.84;4972995;28;20046;-73
2021/01/05 04:58:42;;;;;;;24.92;11.82;;;1.30;77.30;;;-0.92;80.13;95271.41;4977145;28;20041;-73
2021/01/05 05:01:22;;;;;;;26.55;12.38;;;1.40;77.10;;;-0.98;79.94;95258.25;4973983;28;20039;-73
2021/01/05 05:04:12;;;;;;;27.25;13.05;;;1.30;77.00;;;-0.95;79.84;95273.47;4964654;28;20146;-73
2021/01/05 05:06:49;;;;;;;28.58;13.68;;;1.30;77.10;;;-0.97;80.02;95271.03;4984635;28;20430;-72
2021/01/05 05:09:50;;;;;;;31.85;13.85;;;1.20;77.20;;;-0.98;80.42;95284.06;4989676;28;20022;-73
2021/01/05 05:12:44;;;;;;;28.85;12.70;;;1.30;77.40;;;-0.96;80.03;95277.00;5006086;28;20038;-72
2021/01/05 05:15:28;;;;;;;30.23;13.15;;;1.30;77.10;;;-1.04;80.08;95274.31;4987494;28;20501;-73
2021/01/05 05:18:02;;;;;;;31.88;13.40;;;1.30;77.00;;;-0.98;79.88;95286.66;4945830;28;20517;-72
2021/01/05 05:21:20;;;;;;;27.20;13.50;;;1.30;76.90;;;-0.98;80.09;95289.22;5006773;28;20494;-73
2021/01/05 05:24:09;;;;;;;26.30;11.23;;;1.30;77.00;;;-1.00;80.17;95289.38;5005935;28;20065;-72
2021/01/05 05:27:03;;;;;;;30.73;13.80;;;1.40;76.90;;;-0.98;80.16;95289.22;5024939;28;20041;-72
2021/01/05 05:29:43;;;;;;;32.85;14.68;;;1.40;76.80;;;-1.01;80.31;95289.50;5000915;28;20501;-72
2021/01/05 05:32:36;;;;;;;32.35;15.30;;;1.30;77.20;;;-0.99;80.57;95292.75;4990625;28;20038;-72
2021/01/05 05:35:02;;;;;;;33.03;14.57;;;1.30;77.30;;;-0.98;79.97;95294.38;4993718;28;20064;-72
2021/01/05 05:37:52;;;;;;;33.00;15.63;;;1.30;77.00;;;-0.98;80.01;95299.56;5009781;28;20139;-73
2021/01/05 05:40:54;;;;;;;34.83;15.50;;;1.30;76.70;;;-0.97;79.90;95296.81;5002732;28;20137;-72
2021/01/05 05:43:58;;;;;;;36.00;15.27;;;1.30;76.40;;;-0.94;79.95;95300.91;4988680;28;20031;-72
2021/01/05 05:46:45;;;;;;;35.50;15.95;;;1.40;76.40;;;-0.93;80.02;95307.69;4991130;28;20039;-71
2021/01/05 05:49:53;;;;;;;38.10;15.43;;;1.40;76.30;;;-0.93;79.83;95310.28;4990027;28;20042;-73
2021/01/05 05:52:41;;;;;;;34.72;15.85;;;1.40;76.40;;;-0.93;79.71;95307.69;4992721;28;20116;-72
2021/01/05 05:55:28;;;;;;;38.05;15.90;;;1.30;76.60;;;-0.95;79.75;95319.91;4989912;28;20042;-72
2021/01/05 05:57:54;;;;;;;31.48;15.38;;;1.20;76.60;;;-0.97;79.42;95311.50;4974427;28;20041;-71
2021/01/05 06:00:37;;;;;;;36.65;16.27;;;1.30;76.50;;;-1.01;79.57;95315.31;4941528;28;20390;-72
2021/01/05 06:03:04;;;;;;;31.58;15.00;;;1.10;76.30;;;-1.04;79.71;95311.25;4974308;28;20038;-73
2021/01/05 06:05:36;;;;;;;33.20;14.20;;;1.10;76.70;;;-1.06;79.66;95322.66;4968777;28;20038;-73
2021/01/05 06:08:07;;;;;;;37.45;15.23;;;1.10;76.80;;;-1.09;79.61;95316.00;4956163;28;20129;-73
2021/01/05 06:10:34;;;;;;;37.28;16.77;;;1.10;76.90;;;-1.03;79.60;95322.38;4988967;28;20409;-73
2021/01/05 06:12:59;;;;;;;34.75;15.45;;;1.30;76.70;;;-1.02;79.70;95318.84;4988822;28;20350;-72
2021/01/05 06:15:25;;;;;;;39.72;16.85;;;1.30;76.60;;;-1.04;79.77;95324.16;4967240;28;20027;-72
2021/01/05 06:17:51;;;;;;;34.22;15.45;;;1.20;76.40;;;-1.04;79.69;95328.50;4965308;28;20470;-72
2021/01/05 06:20:17;;;;;;;36.45;15.98;;;1.20;76.30;;;-1.11;79.48;95314.53;4989016;28;20413;-73
2021/01/05 06:22:44;;;;;;;33.10;15.02;;;1.20;76.40;;;-1.03;79.45;95327.53;4940958;28;20038;-73
2021/01/05 06:25:10;;;;;;;30.35;15.27;;;1.20;76.30;;;-1.02;79.61;95334.34;4940675;28;20122;-73
2021/01/05 06:27:36;;;;;;;34.63;15.45;;;1.30;76.10;;;-1.10;79.36;95321.31;4988474;28;20121;-73
2021/01/05 06:30:03;;;;;;;36.42;15.73;;;1.30;76.00;;;-1.08;79.65;95325.38;4956965;28;20390;-73
2021/01/05 06:32:29;;;;;;;33.72;15.45;;;1.30;76.00;;;-1.09;79.52;95320.34;4955305;28;20122;-73
2021/01/05 06:34:55;;;;;;;37.13;16.30;;;1.40;75.70;;;-1.06;79.01;95323.47;4953342;28;20783;-73
2021/01/05 06:37:20;;;;;;;34.00;15.50;;;1.40;75.80;;;-0.98;79.52;95336.50;4970910;28;20418;-70
2021/01/05 06:39:46;;;;;;;33.88;15.65;;;1.40;75.90;;;-0.97;79.13;95332.16;5003498;28;20178;-69
2021/01/05 06:42:12;;;;;;;40.40;16.30;;;1.40;75.70;;;-1.03;79.31;95322.38;4991672;28;20183;-70
2021/01/05 06:44:38;;;;;;;37.60;16.27;;;1.40;75.40;;;-1.03;79.34;95327.53;4981229;28;20026;-73
2021/01/05 06:47:03;;;;;;;34.65;15.75;;;1.40;75.40;;;-1.04;79.36;95336.25;4992024;28;20127;-72
2021/01/05 06:49:29;;;;;;;41.22;17.23;;;1.30;75.50;;;-1.02;79.40;95349.81;4987116;28;20053;-67
2021/01/05 06:51:58;;;;;;;34.10;15.82;;;1.30;75.50;;;-1.09;79.19;95344.41;5017982;28;20492;-72
2021/01/05 06:54:24;;;;;;;34.38;16.02;;;1.20;75.60;;;-1.04;79.39;95351.72;5025415;28;20080;-72
2021/01/05 06:56:54;;;;;;;38.05;15.40;;;1.30;75.50;;;-1.06;79.21;95353.63;5009241;28;20542;-70
2021/01/05 06:59:20;;;;;;;39.15;15.65;;;1.20;75.20;;;-1.09;79.08;95353.91;4993777;28;20045;-71
2021/01/05 07:02:03;;;;;;;32.65;14.57;;;1.20;75.40;;;-1.06;79.52;95354.44;4979269;28;20036;-71
2021/01/05 07:04:29;;;;;;;33.15;14.90;;;1.30;75.50;;;-1.10;79.38;95350.50;5002047;28;20040;-72
2021/01/05 07:06:55;;;;;;;36.08;16.52;;;1.30;75.50;;;-1.07;78.92;95357.16;4976589;28;20041;-71
2021/01/05 07:09:22;;;;;;;36.25;15.55;;;1.30;75.60;;;-1.04;79.11;95362.88;5008727;28;20044;-72
2021/01/05 07:11:48;;;;;;;36.15;16.23;;;1.40;75.40;;;-1.07;79.43;95354.59;5011970;28;20042;-73
2021/01/05 07:14:15;;;;;;;41.30;17.02;;;1.30;75.60;;;-1.02;79.15;95365.31;5010145;28;20042;-73
2021/01/05 07:16:41;;;;;;;35.55;16.00;;;1.30;75.40;;;-1.04;79.07;95362.88;5003967;28;20128;-73
2021/01/05 07:19:06;;;;;;;37.47;15.60;;;1.20;75.10;;;-1.04;79.23;95375.75;5008309;28;20065;-73
2021/01/05 07:21:32;;;;;;;37.55;15.75;;;1.20;75.30;;;-1.06;79.13;95374.28;4979015;28;20025;-73
2021/01/05 07:23:58;;;;;;;39.35;16.77;;;1.20;75.80;;;-1.08;79.19;95360.69;4971188;28;20030;-74
2021/01/05 07:26:24;;;;;;;38.30;16.38;;;1.10;75.70;;;-1.09;78.77;95374.56;5000305;28;20549;-73
2021/01/05 07:28:50;;;;;;;42.33;18.15;;;1.10;76.00;;;-1.04;79.18;95380.94;4973840;28;20553;-73
2021/01/05 07:31:15;;;;;;;45.50;18.70;;;1.20;76.10;;;-1.07;78.99;95381.19;5007669;28;20038;-73
2021/01/05 07:33:41;;;;;;;41.55;17.17;;;1.10;75.80;;;-1.12;79.03;95375.63;4989110;28;20176;-74
2021/01/05 07:36:17;;;;;;;41.47;18.15;;;1.10;75.90;;;-1.07;78.90;95388.94;5005896;28;20129;-70
2021/01/05 07:38:43;;;;;;;43.90;19.42;;;1.20;76.10;;;-1.08;78.80;95382.16;4972679;28;20117;-72
2021/01/05 07:41:08;;;;;;;40.55;17.75;;;1.10;75.80;;;-1.13;78.92;95381.75;4976842;28;20121;-70
2021/01/05 07:43:34;;;;;;;39.67;17.10;;;1.10;76.00;;;-1.08;78.98;95389.91;4987110;28;20151;-71
2021/01/05 07:46:00;;;;;;;40.72;17.25;;;1.10;76.10;;;-1.09;78.67;95395.19;4988957;28;20120;-71
2021/01/05 07:48:26;;;;;;;37.72;17.77;;;1.10;76.00;;;-1.13;78.96;95388.66;4965701;28;20290;-71
2021/01/05 07:50:51;;;;;;;34.90;16.77;;;0.90;76.20;;;-1.25;78.91;95375.88;5005703;28;20061;-72
2021/01/05 07:53:17;;;;;;;38.85;16.83;;;0.90;76.20;;;-1.26;78.87;95388.91;4990128;28;20148;-72
2021/01/05 07:55:43;;;;;;;37.00;16.33;;;0.90;76.40;;;-1.29;79.15;95389.19;4972979;28;20461;-72
2021/01/05 07:58:09;;;;;;;36.78;17.15;;;0.90;76.60;;;-1.27;78.46;95393.28;4989937;28;20468;-71
2021/01/05 08:00:34;;;;;;;35.72;16.70;;;0.80;76.60;;;-1.28;79.11;95396.81;5005510;28;20406;-72
2021/01/05 08:03:00;;;;;;;37.10;16.40;;;0.90;76.70;;;-1.31;78.80;95399.66;4989467;28;20488;-68
2021/01/05 08:05:27;;;;;;;37.00;16.88;;;1.00;76.70;;;-1.23;78.90;95409.28;5005094;28;20124;-70
2021/01/05 08:07:53;;;;;;;36.33;16.40;;;0.90;76.20;;;-1.24;79.00;95411.06;5005865;28;20034;-69
2021/01/05 08:10:25;;;;;;;39.85;18.13;;;0.90;76.30;;;-1.24;78.99;95408.47;4989225;28;20663;-70
2021/01/05 08:12:51;;;;;;;44.83;16.70;;;1.00;76.30;;;-1.20;79.04;95413.38;5004990;28;20033;-71
2021/01/05 08:15:20;;;;;;;38.80;16.90;;;1.10;76.30;;;-1.24;79.03;95405.09;4976128;28;20053;-69
2021/01/05 08:17:45;;;;;;;35.13;16.75;;;1.10;75.80;;;-1.15;79.16;95426.69;4972882;28;20040;-71
2021/01/05 08:20:12;;;;;;;39.88;18.05;;;1.10;75.80;;;-1.14;79.00;95417.97;4970988;28;20073;-71
2021/01/05 08:22:38;;;;;;;40.28;19.05;;;1.10;75.70;;;-1.18;78.86;95420.03;4970427;28;20038;-70
2021/01/05 08:25:04;;;;;;;35.85;16.95;;;1.10;75.50;;;-1.19;78.71;95415.00;4971545;28;20462;-70
2021/01/05 08:27:30;;;;;;;41.42;17.60;;;1.10;75.50;;;-1.14;78.81;95428.31;4971744;28;20036;-71
2021/01/05 08:29:55;;;;;;;39.03;16.42;;;1.00;75.60;;;-1.12;78.70;95426.44;4989277;28;20065;-71
2021/01/05 08:32:23;;;;;;;36.72;15.90;;;1.10;75.60;;;-1.11;78.86;95426.31;5020764;28;20112;-71
2021/01/05 08:34:48;;;;;;;37.88;16.95;;;1.20;75.80;;;-1.06;79.09;95425.88;4974602;28;20038;-71
2021/01/05 08:37:14;;;;;;;34.75;15.82;;;1.20;75.40;;;-1.08;78.77;95425.22;5009838;28;20187;-73
2021/01/05 08:39:41;;;;;;;38.03;17.88;;;1.40;75.10;;;-1.02;78.85;95428.06;4992135;28;20076;-72
2021/01/05 08:42:07;;;;;;;44.72;21.73;;;1.30;75.70;;;-1.01;79.14;95423.72;4974419;28;20074;-74
2021/01/05 08:44:33;;;;;;;39.78;17.17;;;1.30;75.50;;;-1.02;78.61;95427.25;4991487;28;20042;-74
2021/01/05 08:47:00;;;;;;;45.85;22.17;;;1.20;74.70;;;-0.99;78.43;95426.97;5008377;28;20111;-69
2021/01/05 08:49:26;;;;;;;37.03;18.77;;;1.40;74.70;;;-0.93;78.49;95436.75;4992231;28;20156;-73
2021/01/05 08:51:53;;;;;;;34.00;16.05;;;1.30;74.20;;;-0.96;78.29;95437.03;5009049;28;20092;-74
2021/01/05 08:54:19;;;;;;;38.13;16.38;;;1.30;74.10;;;-0.93;78.36;95436.75;5003691;28;20026;-68
2021/01/05 08:56:45;;;;;;;32.20;15.82;;;1.40;73.80;;;-0.99;78.11;95434.72;4991890;28;20120;-69
2021/01/05 08:59:10;;;;;;;33.70;15.75;;;1.30;73.10;;;-1.01;78.22;95434.84;5000666;28;20100;-71
2021/01/05 09:01:36;;;;;;;36.00;17.45;;;1.20;73.10;;;-0.98;77.98;95450.06;4964217;28;20057;-69
2021/01/05 09:04:02;;;;;;;38.47;17.10;;;1.20;73.30;;;-1.03;78.16;95435.94;4981930;28;20133;-75
2021/01/05 09:06:28;;;;;;;35.30;16.13;;;1.20;73.50;;;-1.00;77.72;95440.81;4990487;28;20030;-70
2021/01/05 09:08:54;;;;;;;35.88;15.63;;;1.30;73.50;;;-0.99;77.96;95439.88;4988116;28;20082;-71
2021/01/05 09:11:26;;;;;;;35.45;17.40;;;1.40;73.30;;;-0.93;77.36;95447.88;4986136;28;20041;-72
2021/01/05 09:13:52;;;;;;;37.78;16.25;;;1.40;72.90;;;-0.97;77.63;95443.13;5004923;28;20038;-70
2021/01/05 09:16:26;;;;;;;33.95;16.52;;;1.30;72.90;;;-0.86;77.22;95458.50;4976374;28;20100;-73
2021/01/05 09:18:52;;;;;;;36.80;17.23;;;1.40;73.10;;;-0.86;77.61;95450.78;4991944;28;20109;-69
2021/01/05 09:21:22;;;;;;;36.75;17.73;;;1.30;73.00;;;-0.95;77.69;95438.66;5008290;28;20097;-68
2021/01/05 09:23:52;;;;;;;37.33;17.50;;;1.40;73.00;;;-0.87;77.21;95446.56;4990960;28;20068;-70
2021/01/05 09:26:23;;;;;;;35.57;17.87;;;1.30;72.80;;;-0.94;76.57;95437.69;4967772;28;20035;-67
2021/01/05 09:28:49;;;;;;;40.08;19.38;;;1.20;72.20;;;-0.89;77.29;95458.78;4948174;28;20037;-68
2021/01/05 09:31:16;;;;;;;45.53;20.25;;;1.20;72.50;;;-0.89;77.12;95448.47;4979748;28;20121;-68
2021/01/05 09:33:41;;;;;;;39.97;18.38;;;1.20;72.40;;;-0.87;77.09;95449.13;4985503;28;20107;-68
2021/01/05 09:36:08;;;;;;;38.08;18.00;;;1.40;72.40;;;-0.82;76.83;95451.31;5007779;28;20081;-67
2021/01/05 09:38:34;;;;;;;41.05;18.63;;;1.40;71.80;;;-0.83;77.34;95435.00;4989390;28;20037;-68
2021/01/05 09:41:00;;;;;;;39.63;17.98;;;1.60;71.80;;;-0.74;77.55;95444.50;4987547;28;20118;-70
2021/01/05 09:43:25;;;;;;;35.90;18.08;;;1.70;71.30;;;-0.63;76.94;95443.56;5008303;28;20040;-68
2021/01/05 09:45:51;;;;;;;41.45;19.15;;;1.70;70.80;;;-0.58;76.80;95450.91;5018932;28;20105;-68
2021/01/05 09:48:17;;;;;;;37.00;17.65;;;1.70;70.30;;;-0.56;76.47;95433.50;4990825;28;20057;-67
2021/01/05 09:50:44;;;;;;;39.78;17.40;;;1.70;70.40;;;-0.55;76.58;95435.94;5006438;28;20041;-68
2021/01/05 09:53:10;;;;;;;40.78;19.25;;;1.90;70.20;;;-0.46;76.38;95440.28;4984699;28;20052;-67
2021/01/05 09:55:37;;;;;;;41.28;19.13;;;1.70;69.70;;;-0.45;76.22;95435.94;5003318;28;20022;-66
2021/01/05 09:58:03;;;;;;;41.00;19.50;;;1.70;70.00;;;-0.48;76.34;95431.03;4983188;28;20112;-66
2021/01/05 10:00:29;;;;;;;39.55;19.40;;;1.80;69.90;;;-0.45;76.09;95418.69;4994086;28;20041;-66
2021/01/05 10:02:55;;;;;;;40.63;17.60;;;1.90;69.80;;;-0.45;76.31;95423.03;4970414;28;20438;-69
2021/01/05 10:05:21;;;;;;;41.17;18.77;;;1.80;70.10;;;-0.46;75.91;95413.63;5004604;28;20124;-69
2021/01/05 10:07:46;;;;;;;43.45;18.45;;;1.70;69.80;;;-0.40;76.09;95426.84;4988842;28;20030;-68
2021/01/05 10:10:22;;;;;;;37.78;17.77;;;1.70;70.20;;;-0.36;74.68;95428.19;4989455;28;20041;-69
2021/01/05 10:12:48;;;;;;;36.72;17.30;;;2.00;70.20;;;-0.36;75.80;95425.59;4994904;28;20046;-69
2021/01/05 10:15:14;;;;;;;37.65;16.33;;;1.80;69.10;;;-0.40;75.65;95418.28;4983132;28;20112;-68
2021/01/05 10:17:40;;;;;;;34.33;16.02;;;1.70;69.50;;;-0.46;75.82;95413.63;4985651;28;20529;-69
2021/01/05 10:20:07;;;;;;;40.80;18.08;;;1.70;69.50;;;-0.45;75.39;95416.09;4986311;28;20137;-69
2021/01/05 10:22:33;;;;;;;42.28;17.80;;;1.70;69.70;;;-0.49;75.74;95408.75;4982424;28;20494;-69
2021/01/05 10:24:59;;;;;;;39.25;16.40;;;1.70;69.60;;;-0.42;75.39;95404.69;4986458;28;20077;-67
2021/01/05 10:27:25;;;;;;;37.83;16.08;;;1.80;69.70;;;-0.38;75.34;95412.00;4986536;28;20460;-62
2021/01/05 10:29:51;;;;;;;40.40;16.95;;;2.00;69.20;;;-0.23;75.17;95414.94;4989558;28;20045;-65
2021/01/05 10:32:17;;;;;;;38.08;17.27;;;2.10;68.90;;;-0.19;75.06;95408.56;4996990;28;20038;-63
2021/01/05 10:34:43;;;;;;;34.95;16.17;;;2.10;68.40;;;-0.19;75.02;95405.16;4955829;28;20600;-66